createdAt,value
2023-12-04T00:00:48.738Z,-1.44
2023-12-04T00:03:25.390Z,-1.37
2023-12-04T00:06:08.401Z,-1.38
2023-12-04T00:09:09.556Z,-1.95
2023-12-04T00:12:10.635Z,-1.47
2023-12-04T00:14:45.617Z,-1.28
2023-12-04T00:17:36.310Z,-0.85
2023-12-04T00:20:33.059Z,-1.46
2023-12-04T00:23:40.630Z,-1.60
2023-12-04T00:26:32.621Z,-1.78
2023-12-04T00:29:44.605Z,-2.07
2023-12-04T00:32:56.713Z,-2.19
2023-12-04T00:35:34.493Z,-1.86
2023-12-04T00:38:50.110Z,-1.29
2023-12-04T00:41:52.059Z,-1.19
2023-12-04T00:44:56.890Z,-1.65
2023-12-04T00:47:36.826Z,-1.64
2023-12-04T00:50:48.985Z,-1.67
2023-12-04T00:53:56.595Z,-1.32
2023-12-04T00:57:09.178Z,-1.23
2023-12-04T00:59:40.958Z,-1.07
2023-12-04T01:02:42.168Z,-1.16
2023-12-04T01:05:26.460Z,-1.78
2023-12-04T01:08:16.326Z,-1.66
2023-12-04T01:10:57.568Z,-1.41
2023-12-04T01:14:09.671Z,-0.88
2023-12-04T01:17:01.379Z,-1.00
2023-12-04T01:19:44.803Z,-0.85
2023-12-04T01:22:42.048Z,-0.83
2023-12-04T01:25:37.628Z,-0.50
2023-12-04T01:28:34.781Z,-1.47
2023-12-04T01:31:46.833Z,-0.98
2023-12-04T01:34:58.913Z,-0.64
2023-12-04T01:38:11.403Z,-0.69
2023-12-04T01:41:23.754Z,-1.67
2023-12-04T01:44:40.610Z,-1.66
2023-12-04T01:47:53.054Z,-1.26
2023-12-04T01:54:00.459Z,-2.03
2023-12-04T01:56:42.166Z,-1.63
2023-12-04T01:59:21.526Z,-1.57
2023-12-04T02:02:09.842Z,-1.29
2023-12-04T02:04:47.526Z,-1.80
2023-12-04T02:07:51.747Z,-1.34
2023-12-04T02:10:32.262Z,-0.93
2023-12-04T02:13:45.130Z,-0.98
2023-12-04T02:16:27.231Z,-1.14
2023-12-04T02:19:31.231Z,-1.39
2023-12-04T02:22:42.625Z,-1.32
2023-12-04T02:25:42.121Z,-1.44
2023-12-04T02:28:25.070Z,-1.29
2023-12-04T02:31:12.695Z,-0.95
2023-12-04T02:34:00.701Z,-0.92
2023-12-04T02:36:42.843Z,-1.05
2023-12-04T02:39:27.520Z,-1.56
2023-12-04T02:42:44.062Z,-1.50
2023-12-04T02:46:23.743Z,-2.22
2023-12-04T02:53:04.224Z,-2.14
2023-12-04T02:55:47.297Z,-1.19
2023-12-04T02:58:30.258Z,-0.99
2023-12-04T03:01:27.693Z,-0.95
2023-12-04T03:04:29.392Z,-1.16
2023-12-04T03:07:15.938Z,-1.19
2023-12-04T03:10:41.738Z,-1.70
2023-12-04T03:13:47.107Z,-1.72
2023-12-04T03:16:27.999Z,-2.72
2023-12-04T03:19:11.541Z,-2.59
2023-12-04T03:21:59.762Z,-2.26
2023-12-04T03:24:42.702Z,-2.06
2023-12-04T03:27:32.025Z,-1.68
2023-12-04T03:30:32.632Z,-1.62
2023-12-04T03:33:14.888Z,-1.56
2023-12-04T03:36:13.701Z,-1.47
2023-12-04T03:39:14.211Z,-1.25
2023-12-04T03:42:06.615Z,-1.11
2023-12-04T03:45:19.935Z,-1.82
2023-12-04T03:48:37.203Z,-1.61
2023-12-04T03:51:50.692Z,-1.19
2023-12-04T03:54:50.971Z,-1.41
2023-12-04T03:57:47.269Z,-1.51
2023-12-04T04:00:48.730Z,-1.82
2023-12-04T04:04:04.395Z,-1.57
2023-12-04T04:07:05.673Z,-0.99
2023-12-04T04:10:11.885Z,-1.44
2023-12-04T04:12:57.418Z,-0.91
2023-12-04T04:16:09.052Z,-0.67
2023-12-04T04:19:02.887Z,-0.86
2023-12-04T04:22:17.216Z,-0.59
2023-12-04T04:25:23.655Z,-1.11
2023-12-04T04:28:30.482Z,-1.61
2023-12-04T04:31:42.196Z,-2.44
2023-12-04T04:34:50.141Z,-2.26
2023-12-04T04:37:55.155Z,-2.16
2023-12-04T04:40:43.617Z,-1.80
2023-12-04T04:43:49.232Z,-1.77
2023-12-04T04:46:29.527Z,-2.15
2023-12-04T04:49:29.769Z,-2.59
2023-12-04T04:52:39.670Z,-2.40
2023-12-04T04:55:46.575Z,-2.28
2023-12-04T04:58:26.908Z,-2.04
2023-12-04T05:01:30.535Z,-2.28
2023-12-04T05:04:19.926Z,-2.61
2023-12-04T05:07:23.561Z,-2.50
2023-12-04T05:10:35.501Z,-3.30
2023-12-04T05:13:48.903Z,-2.71
2023-12-04T05:17:52.760Z,-3.30
2023-12-04T05:20:39.700Z,-2.07
2023-12-04T05:23:56.161Z,-2.63
2023-12-04T05:26:51.863Z,-2.18
2023-12-04T05:30:16.269Z,-1.85
2023-12-04T05:33:20.278Z,-1.76
2023-12-04T05:36:07.366Z,-1.96
2023-12-04T05:39:10.568Z,-1.63
2023-12-04T05:41:48.549Z,-1.23
2023-12-04T05:44:28.387Z,-1.37
2023-12-04T05:47:13.466Z,-1.57
2023-12-04T05:49:51.329Z,-1.06
2023-12-04T05:52:46.328Z,-1.17
2023-12-04T05:55:22.809Z,-1.11
2023-12-04T05:58:00.289Z,-0.91
2023-12-04T06:00:52.544Z,-0.99
2023-12-04T06:03:44.593Z,-0.89
2023-12-04T06:06:47.974Z,-0.57
2023-12-04T06:09:42.541Z,-0.77
2023-12-04T06:12:17.985Z,-0.45
2023-12-04T06:15:32.909Z,-0.71
2023-12-04T06:18:12.639Z,-0.63
2023-12-04T06:20:47.485Z,-0.78
2023-12-04T06:23:43.138Z,-1.35
2023-12-04T06:26:40.993Z,-1.36
2023-12-04T06:29:16.807Z,-1.57
2023-12-04T06:32:22.127Z,-1.54
2023-12-04T06:35:20.621Z,-1.19
2023-12-04T06:38:19.788Z,-1.18
2023-12-04T06:41:07.382Z,-1.70
2023-12-04T06:43:43.665Z,-1.43
2023-12-04T06:46:26.390Z,-1.82
2023-12-04T06:49:37.570Z,-1.39
2023-12-04T06:52:16.178Z,-0.93
2023-12-04T06:55:20.986Z,-0.88
2023-12-04T06:58:33.279Z,-1.38
2023-12-04T07:01:14.716Z,-0.80
2023-12-04T07:04:11.527Z,-2.43
2023-12-04T07:07:09.476Z,-1.07
2023-12-04T07:10:16.930Z,-0.75
2023-12-04T07:12:59.669Z,-1.25
2023-12-04T07:15:51.902Z,-1.20
2023-12-04T07:18:44.065Z,-1.59
2023-12-04T07:21:38.311Z,-1.00
2023-12-04T07:24:40.326Z,-1.53
2023-12-04T07:27:43.382Z,-1.35
2023-12-04T07:30:35.724Z,-0.75
2023-12-04T07:33:22.450Z,-0.72
2023-12-04T07:36:09.639Z,-0.26
2023-12-04T07:38:41.598Z,-0.53
2023-12-04T07:41:46.091Z,-0.55
2023-12-04T07:44:34.307Z,-0.65
2023-12-04T07:47:03.598Z,-0.06
2023-12-04T07:49:41.297Z,-0.04
2023-12-04T07:52:15.923Z,-0.36
2023-12-04T07:54:51.492Z,-0.75
2023-12-04T07:58:10.167Z,-1.16
2023-12-04T08:01:08.747Z,-0.24
2023-12-04T08:04:21.339Z,-0.80
2023-12-04T08:06:59.579Z,-0.58
2023-12-04T08:09:36.040Z,-0.12
2023-12-04T08:12:36.991Z,-0.03
2023-12-04T08:15:57.697Z,-0.46
2023-12-04T08:19:01.259Z,-0.88
2023-12-04T08:22:02.617Z,-1.22
2023-12-04T08:24:34.576Z,-0.75
2023-12-04T08:27:32.486Z,-0.41
2023-12-04T08:30:08.839Z,0.01
2023-12-04T08:32:49.512Z,0.14
2023-12-04T08:35:51.216Z,-0.10
2023-12-04T08:38:23.348Z,0.36
2023-12-04T08:41:01.371Z,0.27
2023-12-04T08:43:37.683Z,0.44
2023-12-04T08:46:10.314Z,1.05
2023-12-04T08:48:57.488Z,1.33
2023-12-04T08:51:59.839Z,1.49
2023-12-04T08:54:34.098Z,1.49
2023-12-04T08:57:21.998Z,1.95
2023-12-04T08:59:56.795Z,1.50
2023-12-04T09:02:58.203Z,1.82
2023-12-04T09:05:41.105Z,1.58
2023-12-04T09:08:39.495Z,2.24
2023-12-04T09:11:23.520Z,2.23
2023-12-04T09:13:58.505Z,2.76
2023-12-04T09:16:33.482Z,2.68
2023-12-04T09:19:34.802Z,3.06
2023-12-04T09:25:05.347Z,2.52
2023-12-04T09:27:36.895Z,2.73
2023-12-04T09:30:10.616Z,2.54
2023-12-04T09:32:48.893Z,2.61
2023-12-04T09:35:43.811Z,1.96
2023-12-04T09:38:26.412Z,2.36
2023-12-04T09:41:00.451Z,2.65
2023-12-04T09:43:53.089Z,2.40
2023-12-04T09:46:49.743Z,2.32
2023-12-04T09:50:16.550Z,2.84
2023-12-04T09:52:49.319Z,1.89
2023-12-04T09:55:57.624Z,2.20
2023-12-04T09:59:04.464Z,2.30
2023-12-04T10:02:17.345Z,1.58
2023-12-04T10:05:11.370Z,1.75
2023-12-04T10:08:23.436Z,2.16
2023-12-04T10:11:01.153Z,1.98
2023-12-04T10:13:57.048Z,2.44
2023-12-04T10:16:40.966Z,2.25
2023-12-04T10:19:46.421Z,1.75
2023-12-04T10:22:42.269Z,2.69
2023-12-04T10:25:26.858Z,2.94
2023-12-04T10:28:22.768Z,1.53
2023-12-04T10:31:15.242Z,1.85
2023-12-04T10:33:51.330Z,2.22
2023-12-04T10:36:23.481Z,1.35
2023-12-04T10:39:19.143Z,2.47
2023-12-04T10:42:03.189Z,1.97
2023-12-04T10:45:01.615Z,2.31
2023-12-04T10:47:35.179Z,2.43
2023-12-04T10:50:08.936Z,1.87
2023-12-04T10:53:10.695Z,1.46
2023-12-04T10:55:43.231Z,2.13
2023-12-04T10:58:31.839Z,1.28
2023-12-04T11:01:51.050Z,0.97
2023-12-04T11:04:25.104Z,1.17
2023-12-04T11:07:01.899Z,1.63
2023-12-04T11:09:36.082Z,1.54
2023-12-04T11:12:15.124Z,1.27
2023-12-04T11:15:29.873Z,1.73
2023-12-04T11:18:07.449Z,1.90
2023-12-04T11:20:47.649Z,1.42
2023-12-04T11:23:19.969Z,1.21
2023-12-04T11:25:52.037Z,0.59
2023-12-04T11:28:39.990Z,0.04
2023-12-04T11:31:13.192Z,0.29
2023-12-04T11:33:50.851Z,1.14
2023-12-04T11:36:46.433Z,1.53
2023-12-04T11:39:19.282Z,1.13
2023-12-04T11:41:51.117Z,1.19
2023-12-04T11:44:28.863Z,1.46
2023-12-04T11:47:26.542Z,2.04
2023-12-04T11:50:02.888Z,1.59
2023-12-04T11:52:39.306Z,1.20
2023-12-04T11:55:34.201Z,1.35
2023-12-04T11:58:12.928Z,1.80
2023-12-04T12:00:48.279Z,2.13
2023-12-04T12:03:58.391Z,2.13
2023-12-04T12:06:39.417Z,2.10
2023-12-04T12:09:13.071Z,1.76
2023-12-04T12:11:50.439Z,2.75
2023-12-04T12:14:26.241Z,3.07
2023-12-04T12:17:03.540Z,3.20
2023-12-04T12:19:35.273Z,3.34
2023-12-04T12:22:13.376Z,3.69
2023-12-04T12:25:25.348Z,3.50
2023-12-04T12:27:57.049Z,4.06
2023-12-04T12:30:29.153Z,4.29
2023-12-04T12:33:03.224Z,4.11
2023-12-04T12:35:54.550Z,3.64
2023-12-04T12:38:39.055Z,3.58
2023-12-04T12:41:18.131Z,3.88
2023-12-04T12:43:57.561Z,3.94
2023-12-04T12:46:29.493Z,4.03
2023-12-04T12:49:02.102Z,4.09
2023-12-04T12:51:36.802Z,3.95
2023-12-04T12:54:14.858Z,3.36
2023-12-04T12:56:47.207Z,2.83
2023-12-04T12:59:20.306Z,3.58
2023-12-04T13:01:55.116Z,3.40
2023-12-04T13:04:27.576Z,3.64
2023-12-04T13:07:11.665Z,3.81
2023-12-04T13:10:10.848Z,2.83
2023-12-04T13:12:45.499Z,2.43
2023-12-04T13:15:47.698Z,3.00
2023-12-04T13:18:21.741Z,3.25
2023-12-04T13:20:58.725Z,3.27
2023-12-04T13:23:34.261Z,3.37
2023-12-04T13:26:14.395Z,3.34
2023-12-04T13:29:10.546Z,3.07
2023-12-04T13:32:14.427Z,3.32
2023-12-04T13:34:48.998Z,2.27
2023-12-04T13:37:20.794Z,1.99
2023-12-04T13:39:59.704Z,1.86
2023-12-04T13:42:49.951Z,2.11
2023-12-04T13:45:23.488Z,1.96
2023-12-04T13:48:09.602Z,1.92
2023-12-04T13:50:44.421Z,1.63
2023-12-04T13:53:16.940Z,1.51
2023-12-04T13:56:12.381Z,2.15
2023-12-04T13:59:09.795Z,1.94
2023-12-04T14:02:04.804Z,2.22
2023-12-04T14:05:05.115Z,2.03
2023-12-04T14:07:45.295Z,2.15
2023-12-04T14:10:20.717Z,2.10
2023-12-04T14:12:53.116Z,1.71
2023-12-04T14:15:34.099Z,1.35
2023-12-04T14:18:11.877Z,1.31
2023-12-04T14:21:04.247Z,1.71
2023-12-04T14:23:49.199Z,0.99
2023-12-04T14:27:21.282Z,0.59
2023-12-04T14:30:17.390Z,0.34
2023-12-04T14:33:01.325Z,-0.18
2023-12-04T14:35:36.463Z,0.90
2023-12-04T14:38:11.185Z,1.27
2023-12-04T14:41:08.060Z,0.43
2023-12-04T14:44:15.241Z,-0.38
2023-12-04T14:47:18.096Z,-0.13
2023-12-04T14:50:16.207Z,-0.24
2023-12-04T14:53:42.539Z,-0.07
2023-12-04T14:56:34.298Z,-0.01
2023-12-04T14:59:14.140Z,-0.85
2023-12-04T15:02:36.365Z,-0.36
2023-12-04T15:05:58.982Z,-0.25
2023-12-04T15:09:35.182Z,-0.04
2023-12-04T15:12:25.308Z,-0.63
2023-12-04T15:15:16.053Z,-0.26
2023-12-04T15:17:53.428Z,0.18
2023-12-04T15:21:03.658Z,0.50
2023-12-04T15:24:15.666Z,-0.02
2023-12-04T15:27:05.289Z,-0.16
2023-12-04T15:29:40.164Z,0.12
2023-12-04T15:32:32.065Z,-0.27
2023-12-04T15:35:27.387Z,-0.44
2023-12-04T15:38:04.958Z,-0.01
2023-12-04T15:40:45.672Z,0.26
2023-12-04T15:43:57.827Z,0.37
2023-12-04T15:47:10.769Z,0.81
2023-12-04T15:50:02.311Z,0.14
2023-12-04T15:52:40.056Z,0.69
2023-12-04T15:55:17.414Z,0.35
2023-12-04T15:58:06.819Z,0.27
2023-12-04T16:00:50.299Z,-0.15
2023-12-04T16:03:29.819Z,-0.20
2023-12-04T16:06:21.925Z,0.35
2023-12-04T16:09:16.561Z,0.78
2023-12-04T16:11:52.779Z,-0.44
2023-12-04T16:14:48.079Z,-0.45
2023-12-04T16:17:35.551Z,-0.09
2023-12-04T16:20:38.735Z,-0.38
2023-12-04T16:23:10.473Z,-0.15
2023-12-04T16:25:42.486Z,-0.06
2023-12-04T16:28:59.163Z,-0.02
2023-12-04T16:32:06.763Z,0.31
2023-12-04T16:35:10.445Z,0.03
2023-12-04T16:37:44.578Z,-0.11
2023-12-04T16:40:58.302Z,-0.31
2023-12-04T16:43:32.191Z,-0.46
2023-12-04T16:46:08.333Z,-0.14
2023-12-04T16:48:43.558Z,0.36
2023-12-04T16:51:15.590Z,0.33
2023-12-04T16:53:47.703Z,0.45
2023-12-04T16:56:44.184Z,0.88
2023-12-04T16:59:17.925Z,1.26
2023-12-04T17:01:52.859Z,0.88
2023-12-04T17:04:37.683Z,0.20
2023-12-04T17:07:11.817Z,0.87
2023-12-04T17:10:04.026Z,1.20
2023-12-04T17:12:39.460Z,0.72
2023-12-04T17:15:13.126Z,-0.10
2023-12-04T17:18:19.420Z,0.77
2023-12-04T17:20:56.800Z,0.70
2023-12-04T17:23:51.170Z,0.12
2023-12-04T17:26:23.211Z,0.43
2023-12-04T17:29:00.523Z,0.37
2023-12-04T17:32:11.858Z,0.77
2023-12-04T17:34:58.656Z,0.93
2023-12-04T17:37:42.793Z,0.73
2023-12-04T17:40:24.934Z,0.63
2023-12-04T17:42:56.799Z,0.39
2023-12-04T17:45:34.257Z,1.17
2023-12-04T17:48:37.492Z,1.03
2023-12-04T17:51:20.124Z,0.91
2023-12-04T17:53:52.679Z,0.28
2023-12-04T17:57:04.660Z,0.72
2023-12-04T17:59:59.599Z,0.70
2023-12-04T18:02:51.700Z,0.39
2023-12-04T18:05:55.196Z,0.72
2023-12-04T18:08:30.522Z,0.85
2023-12-04T18:11:22.810Z,0.20
2023-12-04T18:14:25.274Z,-0.15
2023-12-04T18:17:21.639Z,0.04
2023-12-04T18:20:07.928Z,0.37
2023-12-04T18:22:42.163Z,0.30
2023-12-04T18:25:23.788Z,0.34
2023-12-04T18:28:17.213Z,0.29
2023-12-04T18:30:50.371Z,-0.75
2023-12-04T18:33:37.008Z,0.00
2023-12-04T18:36:46.088Z,0.14
2023-12-04T18:39:28.042Z,0.21
2023-12-04T18:42:44.221Z,0.15
2023-12-04T18:45:30.027Z,0.04
2023-12-04T18:48:16.708Z,0.28
2023-12-04T18:51:09.170Z,0.35
2023-12-04T18:53:42.193Z,0.11
2023-12-04T18:56:54.442Z,0.47
2023-12-04T18:59:58.804Z,0.13
2023-12-04T19:02:54.010Z,0.62
2023-12-04T19:06:06.211Z,0.33
2023-12-04T19:08:59.522Z,0.10
2023-12-04T19:12:01.072Z,0.45
2023-12-04T19:15:03.899Z,-0.09
2023-12-04T19:18:16.608Z,-0.28
2023-12-04T19:21:29.305Z,-0.04
2023-12-04T19:24:14.999Z,0.14
2023-12-04T19:27:07.748Z,0.14
2023-12-04T19:30:43.120Z,0.24
2023-12-04T19:33:22.725Z,0.70
2023-12-04T19:37:30.536Z,0.06
2023-12-04T19:40:20.643Z,0.37
2023-12-04T19:42:53.413Z,0.12
2023-12-04T19:45:29.507Z,0.19
2023-12-04T19:48:05.119Z,0.14
2023-12-04T19:50:42.917Z,0.23
2023-12-04T19:53:15.119Z,0.15
2023-12-04T19:56:00.606Z,0.29
2023-12-04T19:59:15.239Z,0.24
2023-12-04T20:01:57.885Z,-0.25
2023-12-04T20:04:48.471Z,-0.54
2023-12-04T20:07:25.981Z,-0.38
2023-12-04T20:10:06.956Z,0.09
2023-12-04T20:12:46.583Z,0.32
2023-12-04T20:15:34.547Z,-0.05
2023-12-04T20:18:30.980Z,-0.24
2023-12-04T20:21:19.098Z,-0.88
2023-12-04T20:24:03.242Z,-1.11
2023-12-04T20:26:53.572Z,-0.88
2023-12-04T20:29:29.179Z,-1.25
2023-12-04T20:32:10.424Z,-1.21
2023-12-04T20:34:46.915Z,-1.15
2023-12-04T20:37:22.431Z,-1.34
2023-12-04T20:40:17.895Z,-1.12
2023-12-04T20:43:03.826Z,-1.22
2023-12-04T20:45:39.103Z,-1.39
2023-12-04T20:48:13.699Z,-1.45
2023-12-04T20:51:25.933Z,-1.09
2023-12-04T20:54:20.789Z,-1.82
2023-12-04T20:57:07.282Z,-1.54
2023-12-04T21:00:12.735Z,-1.26
2023-12-04T21:02:44.739Z,-1.61
2023-12-04T21:05:40.102Z,-1.73
2023-12-04T21:08:52.083Z,-2.19
2023-12-04T21:12:01.050Z,-1.65
2023-12-04T21:14:36.162Z,-1.44
2023-12-04T21:17:18.039Z,-1.63
2023-12-04T21:19:53.220Z,-1.88
2023-12-04T21:23:09.572Z,-1.59
2023-12-04T21:26:07.058Z,-1.55
2023-12-04T21:28:50.698Z,-1.43
2023-12-04T21:31:27.001Z,-1.31
2023-12-04T21:33:59.834Z,-0.92
2023-12-04T21:37:12.664Z,-1.79
2023-12-04T21:40:04.762Z,-1.21
2023-12-04T21:43:16.968Z,-0.92
2023-12-04T21:45:52.008Z,-1.06
2023-12-04T21:48:26.385Z,-0.92
2023-12-04T21:51:01.605Z,-0.68
2023-12-04T21:53:38.904Z,-0.52
2023-12-04T21:56:31.228Z,-0.40
2023-12-04T21:59:29.826Z,-0.88
2023-12-04T22:02:18.150Z,-0.78
2023-12-04T22:05:20.808Z,-0.18
2023-12-04T22:08:15.226Z,-0.30
2023-12-04T22:10:50.013Z,-0.68
2023-12-04T22:13:24.525Z,-0.74
2023-12-04T22:16:20.016Z,-0.48
2023-12-04T22:19:35.051Z,-0.36
2023-12-04T22:22:40.990Z,-0.28
2023-12-04T22:25:33.056Z,-0.27
2023-12-04T22:28:27.106Z,-0.40
2023-12-04T22:31:22.337Z,-0.59
2023-12-04T22:34:08.806Z,-0.95
2023-12-04T22:36:44.252Z,-1.13
2023-12-04T22:39:18.650Z,-1.10
2023-12-04T22:41:50.458Z,-0.79
2023-12-04T22:44:35.925Z,-0.98
2023-12-04T22:47:48.480Z,-1.56
2023-12-04T22:50:51.530Z,-1.23
2023-12-04T22:53:43.920Z,-1.43
2023-12-04T22:56:28.528Z,-0.72
2023-12-04T22:59:34.173Z,-1.61
2023-12-04T23:02:06.020Z,-1.10
2023-12-04T23:04:40.946Z,-1.05
2023-12-04T23:07:24.053Z,-1.60
2023-12-04T23:09:59.885Z,-1.26
2023-12-04T23:12:55.737Z,-0.89
2023-12-04T23:15:27.836Z,-1.04
2023-12-04T23:18:28.756Z,-0.71
2023-12-04T23:21:16.923Z,-1.98
2023-12-04T23:24:09.771Z,-0.99
2023-12-04T23:26:44.558Z,-0.90
2023-12-04T23:29:19.375Z,-0.51
2023-12-04T23:31:54.298Z,-0.59
2023-12-04T23:34:47.417Z,0.02
2023-12-04T23:37:19.333Z,-0.09
2023-12-04T23:39:56.793Z,-0.28
2023-12-04T23:42:34.534Z,0.23
2023-12-04T23:45:07.516Z,-0.18
2023-12-04T23:47:42.386Z,-0.15
2023-12-04T23:50:15.096Z,0.10
2023-12-04T23:52:50.184Z,0.18
2023-12-04T23:55:21.945Z,-0.33
2023-12-04T23:57:59.699Z,-0.57
